This is the latest recevied weather packets stored in our database for station/object K3MV-13. If no packets are shown the sender has not sent any weather packets the latest 10 day(s).
| Time | Temp. | Humidity | Pressure | Rain* | Wind** | Luminosity | Snow |
|---|---|---|---|---|---|---|---|
| 1777917103 | 20.56° C | 46% | 1010.7 hPa | 0 mm | - | 922 W/m² | - |
| 1777916195 | 18.89° C | 47% | 1010.7 hPa | 0 mm | - | 850 W/m² | - |
| 1777915892 | 19.44° C | 45% | 1010.7 hPa | 0 mm | - | 961 W/m² | - |
| 1777915589 | 20° C | 45% | 1010.9 hPa | 0 mm | - | 940 W/m² | - |
| 1777914375 | 18.89° C | 47% | 1011.3 hPa | 0 mm | - | 419 W/m² | - |
| 1777914073 | 19.44° C | 44% | 1011.4 hPa | 0 mm | - | 319 W/m² | - |
| 1777913769 | 19.44° C | 47% | 1011.4 hPa | 0 mm | - | 925 W/m² | - |
| 1777913465 | 18.89° C | 47% | 1011.6 hPa | 0 mm | - | 871 W/m² | - |
| 1777912858 | 18.89° C | 45% | 1011.7 hPa | 0 mm | - | 859 W/m² | - |
| 1777911038 | 18.33° C | 44% | 1011.8 hPa | 0 mm | - | 855 W/m² | - |
| 1777908917 | 17.22° C | 47% | 1012.3 hPa | 0 mm | - | 757 W/m² | - |
| 1777907095 | 17.78° C | 44% | 1012.4 hPa | 0 mm | - | 727 W/m² | - |
| 1777906186 | 17.22° C | 44% | 1012.3 hPa | 0 mm | - | 729 W/m² | - |
| 1777905579 | 16.67° C | 45% | 1012.3 hPa | 0 mm | - | 685 W/m² | - |
| 1777905277 | 16.67° C | 46% | 1012.3 hPa | 0 mm | - | 684 W/m² | - |
| 1777904974 | 16.11° C | 46% | 1012.3 hPa | 0 mm | - | 675 W/m² | - |
| 1777904671 | 16.67° C | 44% | 1012.2 hPa | 0 mm | - | 646 W/m² | - |
| 1777904065 | 16.11° C | 49% | 1012.4 hPa | 0 mm | - | 617 W/m² | - |
| 1777903761 | 15.56° C | 48% | 1012.2 hPa | 0 mm | - | 590 W/m² | - |
| 1777903458 | 15° C | 50% | 1012.5 hPa | 0 mm | - | 657 W/m² | - |
| 1777902851 | 15° C | 50% | 1012.6 hPa | 0 mm | - | 533 W/m² | - |
| 1777902245 | 13.89° C | 51% | 1012.6 hPa | 0 mm | - | 508 W/m² | - |
| 1777901943 | 13.89° C | 52% | 1012.9 hPa | 0 mm | - | 335 W/m² | - |
| 1777901640 | 14.44° C | 49% | 1012.7 hPa | 0 mm | - | 228 W/m² | - |
| 1777901337 | 13.89° C | 50% | 1012.9 hPa | 0 mm | - | 478 W/m² | - |
* Rain latest hour (hover to see other rain measurements)
** Current wind speed in m/s (hover to see current wind gust speed)